sensor_id;sensor_type;location;lat;lon;timestamp;temperature;humidity
41924;DHT22;27613;48.116;11.656;2023-02-14T00:01:56;0.00;99.90
41924;DHT22;27613;48.116;11.656;2023-02-14T00:04:21;0.00;99.90
41924;DHT22;27613;48.116;11.656;2023-02-14T00:06:47;0.00;99.90
41924;DHT22;27613;48.116;11.656;2023-02-14T00:09:15;0.00;99.90
41924;DHT22;27613;48.116;11.656;2023-02-14T00:11:42;-0.10;99.90
41924;DHT22;27613;48.116;11.656;2023-02-14T00:14:08;-0.10;99.90
41924;DHT22;27613;48.116;11.656;2023-02-14T00:16:52;0.00;99.90
41924;DHT22;27613;48.116;11.656;2023-02-14T00:19:19;0.00;99.90
41924;DHT22;27613;48.116;11.656;2023-02-14T00:21:45;-0.10;99.90
41924;DHT22;27613;48.116;11.656;2023-02-14T00:24:13;-0.10;99.90
41924;DHT22;27613;48.116;11.656;2023-02-14T00:26:40;-0.10;99.90
41924;DHT22;27613;48.116;11.656;2023-02-14T00:29:08;-0.10;99.90
41924;DHT22;27613;48.116;11.656;2023-02-14T00:31:34;-0.10;99.90
41924;DHT22;27613;48.116;11.656;2023-02-14T00:34:01;-0.10;99.90
41924;DHT22;27613;48.116;11.656;2023-02-14T00:36:27;-0.20;99.90
41924;DHT22;27613;48.116;11.656;2023-02-14T00:38:53;-0.20;99.90
41924;DHT22;27613;48.116;11.656;2023-02-14T00:41:18;-0.10;99.90
41924;DHT22;27613;48.116;11.656;2023-02-14T00:43:48;-0.20;99.90
41924;DHT22;27613;48.116;11.656;2023-02-14T00:46:15;-0.40;99.90
41924;DHT22;27613;48.116;11.656;2023-02-14T00:48:40;-0.50;99.90
41924;DHT22;27613;48.116;11.656;2023-02-14T00:51:07;-0.60;99.90
41924;DHT22;27613;48.116;11.656;2023-02-14T00:53:32;-0.70;99.90
41924;DHT22;27613;48.116;11.656;2023-02-14T00:55:58;-0.70;99.90
41924;DHT22;27613;48.116;11.656;2023-02-14T00:58:24;-0.70;99.90
41924;DHT22;27613;48.116;11.656;2023-02-14T01:00:49;-0.60;99.90
41924;DHT22;27613;48.116;11.656;2023-02-14T01:03:15;-0.50;99.90
41924;DHT22;27613;48.116;11.656;2023-02-14T01:05:41;-0.50;99.90
41924;DHT22;27613;48.116;11.656;2023-02-14T01:08:06;-0.50;99.90
41924;DHT22;27613;48.116;11.656;2023-02-14T01:10:32;-0.70;99.90
41924;DHT22;27613;48.116;11.656;2023-02-14T01:12:57;-0.80;99.90
41924;DHT22;27613;48.116;11.656;2023-02-14T01:15:23;-0.70;99.90
41924;DHT22;27613;48.116;11.656;2023-02-14T01:17:49;-0.50;99.90
41924;DHT22;27613;48.116;11.656;2023-02-14T01:20:14;-0.50;99.90
41924;DHT22;27613;48.116;11.656;2023-02-14T01:22:40;-0.70;99.90
41924;DHT22;27613;48.116;11.656;2023-02-14T01:25:06;-0.70;99.90
41924;DHT22;27613;48.116;11.656;2023-02-14T01:27:31;-0.70;99.90
41924;DHT22;27613;48.116;11.656;2023-02-14T01:29:57;-0.60;99.90
41924;DHT22;27613;48.116;11.656;2023-02-14T01:32:22;-0.60;99.90
41924;DHT22;27613;48.116;11.656;2023-02-14T01:34:48;-0.50;99.90
41924;DHT22;27613;48.116;11.656;2023-02-14T01:37:14;-0.40;99.90
41924;DHT22;27613;48.116;11.656;2023-02-14T01:39:39;-0.40;99.90
41924;DHT22;27613;48.116;11.656;2023-02-14T01:42:05;-0.50;99.90
41924;DHT22;27613;48.116;11.656;2023-02-14T01:46:59;-0.50;99.90
41924;DHT22;27613;48.116;11.656;2023-02-14T01:49:29;-0.60;99.90
41924;DHT22;27613;48.116;11.656;2023-02-14T01:52:00;-0.60;99.90
41924;DHT22;27613;48.116;11.656;2023-02-14T01:54:27;-0.50;99.90
41924;DHT22;27613;48.116;11.656;2023-02-14T01:56:56;-0.60;99.90
41924;DHT22;27613;48.116;11.656;2023-02-14T01:59:25;-0.60;99.90
41924;DHT22;27613;48.116;11.656;2023-02-14T02:01:52;-0.50;99.90
41924;DHT22;27613;48.116;11.656;2023-02-14T02:04:22;-0.50;99.90
41924;DHT22;27613;48.116;11.656;2023-02-14T02:06:52;-0.50;99.90
41924;DHT22;27613;48.116;11.656;2023-02-14T02:09:45;-0.50;99.90
41924;DHT22;27613;48.116;11.656;2023-02-14T02:12:11;-0.70;99.90
41924;DHT22;27613;48.116;11.656;2023-02-14T02:14:37;-0.60;99.90
41924;DHT22;27613;48.116;11.656;2023-02-14T02:33:39;-0.70;99.90
41924;DHT22;27613;48.116;11.656;2023-02-14T02:36:30;-0.70;99.90
41924;DHT22;27613;48.116;11.656;2023-02-14T02:39:08;-1.00;99.90
41924;DHT22;27613;48.116;11.656;2023-02-14T02:45:01;-1.10;99.90
41924;DHT22;27613;48.116;11.656;2023-02-14T02:47:44;-0.90;99.90
41924;DHT22;27613;48.116;11.656;2023-02-14T02:50:21;-0.80;99.90
41924;DHT22;27613;48.116;11.656;2023-02-14T02:53:24;-1.00;99.90
41924;DHT22;27613;48.116;11.656;2023-02-14T02:56:12;-1.10;99.90
41924;DHT22;27613;48.116;11.656;2023-02-14T02:59:09;-0.90;99.90
41924;DHT22;27613;48.116;11.656;2023-02-14T03:01:46;-0.80;99.90
41924;DHT22;27613;48.116;11.656;2023-02-14T03:04:12;-0.80;99.90
41924;DHT22;27613;48.116;11.656;2023-02-14T03:06:58;-0.70;99.90
41924;DHT22;27613;48.116;11.656;2023-02-14T03:14:49;-1.20;99.90
41924;DHT22;27613;48.116;11.656;2023-02-14T03:25:39;-1.00;99.90
41924;DHT22;27613;48.116;11.656;2023-02-14T03:28:21;-1.00;99.90
41924;DHT22;27613;48.116;11.656;2023-02-14T03:30:56;-0.90;99.90
41924;DHT22;27613;48.116;11.656;2023-02-14T03:36:33;-1.00;99.90
41924;DHT22;27613;48.116;11.656;2023-02-14T03:39:03;-1.00;99.90
41924;DHT22;27613;48.116;11.656;2023-02-14T03:41:35;-0.90;99.90
41924;DHT22;27613;48.116;11.656;2023-02-14T03:44:04;-1.10;99.90
41924;DHT22;27613;48.116;11.656;2023-02-14T03:46:36;-1.20;99.90
41924;DHT22;27613;48.116;11.656;2023-02-14T03:49:09;-1.40;99.90
41924;DHT22;27613;48.116;11.656;2023-02-14T03:51:37;-1.50;99.90
41924;DHT22;27613;48.116;11.656;2023-02-14T03:54:06;-1.60;99.90
41924;DHT22;27613;48.116;11.656;2023-02-14T03:56:39;-1.40;99.90
41924;DHT22;27613;48.116;11.656;2023-02-14T03:59:12;-1.30;99.90
41924;DHT22;27613;48.116;11.656;2023-02-14T04:01:44;-1.20;99.90
41924;DHT22;27613;48.116;11.656;2023-02-14T04:04:11;-1.10;99.90
41924;DHT22;27613;48.116;11.656;2023-02-14T04:06:39;-1.10;99.90
41924;DHT22;27613;48.116;11.656;2023-02-14T04:09:04;-1.00;99.90
41924;DHT22;27613;48.116;11.656;2023-02-14T04:11:32;-0.90;99.90
41924;DHT22;27613;48.116;11.656;2023-02-14T04:14:00;-1.00;99.90
41924;DHT22;27613;48.116;11.656;2023-02-14T04:16:25;-1.20;99.90
41924;DHT22;27613;48.116;11.656;2023-02-14T04:18:51;-1.50;99.90
41924;DHT22;27613;48.116;11.656;2023-02-14T04:21:35;-1.60;99.90
41924;DHT22;27613;48.116;11.656;2023-02-14T04:24:00;-1.70;99.90
41924;DHT22;27613;48.116;11.656;2023-02-14T04:26:26;-1.70;99.90
41924;DHT22;27613;48.116;11.656;2023-02-14T04:28:51;-1.50;99.90
41924;DHT22;27613;48.116;11.656;2023-02-14T04:31:17;-1.30;99.90
41924;DHT22;27613;48.116;11.656;2023-02-14T04:33:42;-1.30;99.90
41924;DHT22;27613;48.116;11.656;2023-02-14T04:36:10;-1.30;99.90
41924;DHT22;27613;48.116;11.656;2023-02-14T04:38:35;-1.20;99.90
41924;DHT22;27613;48.116;11.656;2023-02-14T04:41:01;-1.10;99.90
41924;DHT22;27613;48.116;11.656;2023-02-14T04:43:27;-1.10;99.90
41924;DHT22;27613;48.116;11.656;2023-02-14T04:45:52;-1.20;99.90
41924;DHT22;27613;48.116;11.656;2023-02-14T04:48:18;-1.10;99.90
41924;DHT22;27613;48.116;11.656;2023-02-14T04:50:43;-1.00;99.90
41924;DHT22;27613;48.116;11.656;2023-02-14T04:53:09;-1.10;99.90
41924;DHT22;27613;48.116;11.656;2023-02-14T04:55:34;-1.20;99.90
41924;DHT22;27613;48.116;11.656;2023-02-14T04:58:00;-1.10;99.90
41924;DHT22;27613;48.116;11.656;2023-02-14T05:00:25;-1.00;99.90
41924;DHT22;27613;48.116;11.656;2023-02-14T05:02:51;-1.10;99.90
41924;DHT22;27613;48.116;11.656;2023-02-14T05:05:17;-1.00;99.90
41924;DHT22;27613;48.116;11.656;2023-02-14T05:07:42;-1.00;99.90
41924;DHT22;27613;48.116;11.656;2023-02-14T05:10:12;-1.00;99.90
41924;DHT22;27613;48.116;11.656;2023-02-14T05:12:37;-1.10;99.90
41924;DHT22;27613;48.116;11.656;2023-02-14T05:15:03;-1.10;99.90
41924;DHT22;27613;48.116;11.656;2023-02-14T05:17:28;-1.10;99.90
41924;DHT22;27613;48.116;11.656;2023-02-14T05:19:54;-1.50;99.90
41924;DHT22;27613;48.116;11.656;2023-02-14T05:22:19;-1.70;99.90
41924;DHT22;27613;48.116;11.656;2023-02-14T05:24:45;-1.60;99.90
41924;DHT22;27613;48.116;11.656;2023-02-14T05:27:12;-1.70;99.90
41924;DHT22;27613;48.116;11.656;2023-02-14T05:29:37;-1.90;99.90
41924;DHT22;27613;48.116;11.656;2023-02-14T05:32:03;-1.70;99.90
41924;DHT22;27613;48.116;11.656;2023-02-14T05:34:29;-1.60;99.90
41924;DHT22;27613;48.116;11.656;2023-02-14T05:36:54;-1.50;99.90
41924;DHT22;27613;48.116;11.656;2023-02-14T05:39:20;-1.50;99.90
41924;DHT22;27613;48.116;11.656;2023-02-14T05:41:45;-1.50;99.90
41924;DHT22;27613;48.116;11.656;2023-02-14T05:44:11;-1.70;99.90
41924;DHT22;27613;48.116;11.656;2023-02-14T05:46:36;-1.60;99.90
41924;DHT22;27613;48.116;11.656;2023-02-14T05:49:02;-1.60;99.90
41924;DHT22;27613;48.116;11.656;2023-02-14T05:51:28;-1.40;99.90
41924;DHT22;27613;48.116;11.656;2023-02-14T05:53:53;-1.40;99.90
41924;DHT22;27613;48.116;11.656;2023-02-14T05:56:19;-1.30;99.90
41924;DHT22;27613;48.116;11.656;2023-02-14T05:58:44;-1.70;99.90
41924;DHT22;27613;48.116;11.656;2023-02-14T06:01:10;-1.90;99.90
41924;DHT22;27613;48.116;11.656;2023-02-14T06:03:35;-1.90;99.90
41924;DHT22;27613;48.116;11.656;2023-02-14T06:06:01;-1.90;99.90
41924;DHT22;27613;48.116;11.656;2023-02-14T06:08:26;-1.80;99.90
41924;DHT22;27613;48.116;11.656;2023-02-14T06:10:52;-1.60;99.90
41924;DHT22;27613;48.116;11.656;2023-02-14T06:13:18;-1.60;99.90
41924;DHT22;27613;48.116;11.656;2023-02-14T06:15:43;-1.60;99.90
41924;DHT22;27613;48.116;11.656;2023-02-14T06:18:09;-1.50;99.90
41924;DHT22;27613;48.116;11.656;2023-02-14T06:20:34;-1.50;99.90
41924;DHT22;27613;48.116;11.656;2023-02-14T06:23:00;-1.40;99.90
41924;DHT22;27613;48.116;11.656;2023-02-14T06:25:26;-1.40;99.90
41924;DHT22;27613;48.116;11.656;2023-02-14T06:27:55;-1.30;99.90
41924;DHT22;27613;48.116;11.656;2023-02-14T06:30:21;-1.20;99.90
41924;DHT22;27613;48.116;11.656;2023-02-14T06:32:47;-1.20;99.90
41924;DHT22;27613;48.116;11.656;2023-02-14T06:35:13;-1.20;99.90
41924;DHT22;27613;48.116;11.656;2023-02-14T06:37:39;-1.20;99.90
41924;DHT22;27613;48.116;11.656;2023-02-14T06:40:07;-1.20;99.90
41924;DHT22;27613;48.116;11.656;2023-02-14T06:42:33;-1.20;99.90
41924;DHT22;27613;48.116;11.656;2023-02-14T06:44:58;-1.20;99.90
41924;DHT22;27613;48.116;11.656;2023-02-14T06:47:24;-1.20;99.90
41924;DHT22;27613;48.116;11.656;2023-02-14T06:49:49;-1.10;99.90
41924;DHT22;27613;48.116;11.656;2023-02-14T06:52:16;-1.10;99.90
41924;DHT22;27613;48.116;11.656;2023-02-14T06:54:41;-1.00;99.90
41924;DHT22;27613;48.116;11.656;2023-02-14T06:57:07;-1.10;99.90
41924;DHT22;27613;48.116;11.656;2023-02-14T06:59:32;-1.00;99.90
41924;DHT22;27613;48.116;11.656;2023-02-14T07:01:58;-1.00;99.90
41924;DHT22;27613;48.116;11.656;2023-02-14T07:04:23;-1.00;99.90
41924;DHT22;27613;48.116;11.656;2023-02-14T07:06:49;-1.20;99.90
41924;DHT22;27613;48.116;11.656;2023-02-14T07:09:14;-1.20;99.90
41924;DHT22;27613;48.116;11.656;2023-02-14T07:11:43;-1.20;99.90
41924;DHT22;27613;48.116;11.656;2023-02-14T07:14:09;-1.30;99.90
41924;DHT22;27613;48.116;11.656;2023-02-14T07:16:35;-1.40;99.90
41924;DHT22;27613;48.116;11.656;2023-02-14T07:19:00;-1.50;99.90
41924;DHT22;27613;48.116;11.656;2023-02-14T07:21:26;-1.70;99.90
41924;DHT22;27613;48.116;11.656;2023-02-14T07:23:51;-1.60;99.90
41924;DHT22;27613;48.116;11.656;2023-02-14T07:26:17;-1.70;99.90
41924;DHT22;27613;48.116;11.656;2023-02-14T07:28:44;-1.80;99.90
41924;DHT22;27613;48.116;11.656;2023-02-14T07:31:10;-1.60;99.90
41924;DHT22;27613;48.116;11.656;2023-02-14T07:33:36;-1.50;99.90
41924;DHT22;27613;48.116;11.656;2023-02-14T07:36:06;-1.40;99.90
41924;DHT22;27613;48.116;11.656;2023-02-14T07:38:32;-1.50;99.90
41924;DHT22;27613;48.116;11.656;2023-02-14T07:40:58;-1.70;99.90
41924;DHT22;27613;48.116;11.656;2023-02-14T07:43:23;-1.60;99.90
41924;DHT22;27613;48.116;11.656;2023-02-14T07:45:49;-1.70;99.90
41924;DHT22;27613;48.116;11.656;2023-02-14T07:48:14;-1.90;99.90
41924;DHT22;27613;48.116;11.656;2023-02-14T07:50:40;-1.90;99.90
41924;DHT22;27613;48.116;11.656;2023-02-14T07:53:05;-1.60;99.90
41924;DHT22;27613;48.116;11.656;2023-02-14T07:55:33;-1.60;99.90
41924;DHT22;27613;48.116;11.656;2023-02-14T07:57:58;-1.70;99.90
41924;DHT22;27613;48.116;11.656;2023-02-14T08:00:24;-1.50;99.90
41924;DHT22;27613;48.116;11.656;2023-02-14T08:02:49;-1.30;99.90
41924;DHT22;27613;48.116;11.656;2023-02-14T08:05:15;-1.30;99.90
41924;DHT22;27613;48.116;11.656;2023-02-14T08:07:41;-1.10;99.90
41924;DHT22;27613;48.116;11.656;2023-02-14T08:10:08;-0.90;99.90
41924;DHT22;27613;48.116;11.656;2023-02-14T08:12:33;-0.90;99.90
41924;DHT22;27613;48.116;11.656;2023-02-14T08:15:18;-1.00;99.90
41924;DHT22;27613;48.116;11.656;2023-02-14T08:18:01;-0.90;99.90
41924;DHT22;27613;48.116;11.656;2023-02-14T08:20:27;-0.60;99.90
41924;DHT22;27613;48.116;11.656;2023-02-14T08:22:52;-0.50;99.90
41924;DHT22;27613;48.116;11.656;2023-02-14T08:25:18;-0.60;99.90
41924;DHT22;27613;48.116;11.656;2023-02-14T08:27:44;-0.50;99.90
41924;DHT22;27613;48.116;11.656;2023-02-14T08:30:09;-0.80;99.90
41924;DHT22;27613;48.116;11.656;2023-02-14T08:32:35;-0.50;99.90
41924;DHT22;27613;48.116;11.656;2023-02-14T08:35:01;-0.30;99.90
41924;DHT22;27613;48.116;11.656;2023-02-14T08:37:26;0.00;99.90
41924;DHT22;27613;48.116;11.656;2023-02-14T08:39:52;0.00;99.90
41924;DHT22;27613;48.116;11.656;2023-02-14T08:42:17;0.00;99.90
41924;DHT22;27613;48.116;11.656;2023-02-14T08:44:43;0.20;99.90
41924;DHT22;27613;48.116;11.656;2023-02-14T08:47:08;-0.10;99.90
41924;DHT22;27613;48.116;11.656;2023-02-14T08:49:34;0.00;99.90
41924;DHT22;27613;48.116;11.656;2023-02-14T08:51:59;0.20;99.90
41924;DHT22;27613;48.116;11.656;2023-02-14T08:54:25;0.30;99.90
41924;DHT22;27613;48.116;11.656;2023-02-14T08:56:51;0.50;99.90
41924;DHT22;27613;48.116;11.656;2023-02-14T08:59:16;0.60;99.90
41924;DHT22;27613;48.116;11.656;2023-02-14T09:01:42;0.80;99.90
41924;DHT22;27613;48.116;11.656;2023-02-14T09:04:07;0.90;99.90
41924;DHT22;27613;48.116;11.656;2023-02-14T09:06:36;0.90;99.90
41924;DHT22;27613;48.116;11.656;2023-02-14T09:09:03;1.00;99.90
41924;DHT22;27613;48.116;11.656;2023-02-14T09:11:28;1.00;99.90
41924;DHT22;27613;48.116;11.656;2023-02-14T09:13:54;1.10;99.90
41924;DHT22;27613;48.116;11.656;2023-02-14T09:16:20;1.10;99.90
41924;DHT22;27613;48.116;11.656;2023-02-14T09:18:47;1.20;99.90
41924;DHT22;27613;48.116;11.656;2023-02-14T09:21:16;1.20;99.90
41924;DHT22;27613;48.116;11.656;2023-02-14T09:23:41;1.10;99.90
41924;DHT22;27613;48.116;11.656;2023-02-14T09:26:10;1.10;99.90
41924;DHT22;27613;48.116;11.656;2023-02-14T09:28:37;1.10;99.90
41924;DHT22;27613;48.116;11.656;2023-02-14T09:31:15;1.20;99.90
41924;DHT22;27613;48.116;11.656;2023-02-14T09:33:42;1.40;99.90
41924;DHT22;27613;48.116;11.656;2023-02-14T09:36:26;1.70;99.90
41924;DHT22;27613;48.116;11.656;2023-02-14T09:39:10;2.10;99.90
41924;DHT22;27613;48.116;11.656;2023-02-14T09:45:04;2.40;99.90
41924;DHT22;27613;48.116;11.656;2023-02-14T09:50:27;2.80;99.90
41924;DHT22;27613;48.116;11.656;2023-02-14T09:52:57;2.90;99.90
41924;DHT22;27613;48.116;11.656;2023-02-14T09:55:28;2.70;99.90
41924;DHT22;27613;48.116;11.656;2023-02-14T09:58:02;3.20;99.90
41924;DHT22;27613;48.116;11.656;2023-02-14T10:00:45;3.70;99.90
41924;DHT22;27613;48.116;11.656;2023-02-14T10:11:45;6.10;99.60
41924;DHT22;27613;48.116;11.656;2023-02-14T10:14:20;7.20;94.40
41924;DHT22;27613;48.116;11.656;2023-02-14T10:17:03;7.60;91.90
41924;DHT22;27613;48.116;11.656;2023-02-14T10:19:36;7.60;89.20
41924;DHT22;27613;48.116;11.656;2023-02-14T10:22:06;7.00;90.50
41924;DHT22;27613;48.116;11.656;2023-02-14T10:27:28;6.20;92.60
41924;DHT22;27613;48.116;11.656;2023-02-14T10:29:54;6.80;91.60
41924;DHT22;27613;48.116;11.656;2023-02-14T10:32:48;9.50;84.10
41924;DHT22;27613;48.116;11.656;2023-02-14T10:35:30;11.70;73.30
41924;DHT22;27613;48.116;11.656;2023-02-14T10:41:04;14.10;62.80
41924;DHT22;27613;48.116;11.656;2023-02-14T10:44:12;15.20;59.50
41924;DHT22;27613;48.116;11.656;2023-02-14T10:46:55;16.10;56.60
41924;DHT22;27613;48.116;11.656;2023-02-14T10:49:34;15.70;55.30
41924;DHT22;27613;48.116;11.656;2023-02-14T10:54:57;17.10;53.30
41924;DHT22;27613;48.116;11.656;2023-02-14T10:57:35;17.80;52.50
41924;DHT22;27613;48.116;11.656;2023-02-14T11:00:06;18.10;52.30
41924;DHT22;27613;48.116;11.656;2023-02-14T11:02:38;18.00;52.10
41924;DHT22;27613;48.116;11.656;2023-02-14T11:05:19;16.80;52.60
41924;DHT22;27613;48.116;11.656;2023-02-14T11:07:48;17.00;53.50
41924;DHT22;27613;48.116;11.656;2023-02-14T11:10:13;17.50;52.40
41924;DHT22;27613;48.116;11.656;2023-02-14T11:12:40;16.10;53.50
41924;DHT22;27613;48.116;11.656;2023-02-14T11:15:10;16.50;53.90
41924;DHT22;27613;48.116;11.656;2023-02-14T11:17:42;17.80;52.30
41924;DHT22;27613;48.116;11.656;2023-02-14T11:20:27;18.60;50.50
41924;DHT22;27613;48.116;11.656;2023-02-14T11:22:55;19.00;49.80
41924;DHT22;27613;48.116;11.656;2023-02-14T11:25:22;18.40;50.00
41924;DHT22;27613;48.116;11.656;2023-02-14T11:27:56;18.20;50.40
41924;DHT22;27613;48.116;11.656;2023-02-14T11:30:35;18.10;51.40
41924;DHT22;27613;48.116;11.656;2023-02-14T11:33:03;18.60;49.00
41924;DHT22;27613;48.116;11.656;2023-02-14T11:35:30;18.20;49.70
41924;DHT22;27613;48.116;11.656;2023-02-14T11:38:04;17.50;52.10
41924;DHT22;27613;48.116;11.656;2023-02-14T11:40:33;18.30;50.50
41924;DHT22;27613;48.116;11.656;2023-02-14T11:45:39;17.40;52.70
41924;DHT22;27613;48.116;11.656;2023-02-14T11:48:15;17.60;52.30
41924;DHT22;27613;48.116;11.656;2023-02-14T11:50:43;16.30;54.40
41924;DHT22;27613;48.116;11.656;2023-02-14T11:53:19;16.30;53.50
41924;DHT22;27613;48.116;11.656;2023-02-14T11:55:51;16.00;54.20
41924;DHT22;27613;48.116;11.656;2023-02-14T12:00:54;15.10;56.40
41924;DHT22;27613;48.116;11.656;2023-02-14T12:03:20;15.90;55.00
41924;DHT22;27613;48.116;11.656;2023-02-14T12:05:47;16.20;53.90
41924;DHT22;27613;48.116;11.656;2023-02-14T12:08:14;16.80;53.40
41924;DHT22;27613;48.116;11.656;2023-02-14T12:10:41;15.30;56.10
41924;DHT22;27613;48.116;11.656;2023-02-14T12:15:36;17.50;51.30
41924;DHT22;27613;48.116;11.656;2023-02-14T12:18:17;17.30;51.50
41924;DHT22;27613;48.116;11.656;2023-02-14T12:24:03;15.50;54.90
41924;DHT22;27613;48.116;11.656;2023-02-14T12:29:37;15.10;56.70
41924;DHT22;27613;48.116;11.656;2023-02-14T12:34:37;16.80;54.00
41924;DHT22;27613;48.116;11.656;2023-02-14T12:43:14;17.50;52.60
41924;DHT22;27613;48.116;11.656;2023-02-14T12:46:02;17.00;53.60
41924;DHT22;27613;48.116;11.656;2023-02-14T12:57:27;18.00;52.30
41924;DHT22;27613;48.116;11.656;2023-02-14T13:21:25;17.70;53.30
41924;DHT22;27613;48.116;11.656;2023-02-14T13:23:55;17.20;54.40
41924;DHT22;27613;48.116;11.656;2023-02-14T13:26:30;17.90;53.10
41924;DHT22;27613;48.116;11.656;2023-02-14T13:29:03;15.90;55.70
41924;DHT22;27613;48.116;11.656;2023-02-14T13:31:30;15.20;57.80
41924;DHT22;27613;48.116;11.656;2023-02-14T13:33:59;15.30;58.60
41924;DHT22;27613;48.116;11.656;2023-02-14T13:36:26;16.70;56.30
41924;DHT22;27613;48.116;11.656;2023-02-14T13:38:54;17.20;54.80
41924;DHT22;27613;48.116;11.656;2023-02-14T13:41:21;17.10;55.30
41924;DHT22;27613;48.116;11.656;2023-02-14T13:46:17;16.20;56.00
41924;DHT22;27613;48.116;11.656;2023-02-14T13:48:55;17.00;55.10
41924;DHT22;27613;48.116;11.656;2023-02-14T13:51:49;15.40;57.90
41924;DHT22;27613;48.116;11.656;2023-02-14T13:54:28;15.70;58.20
41924;DHT22;27613;48.116;11.656;2023-02-14T13:56:55;15.90;57.10
41924;DHT22;27613;48.116;11.656;2023-02-14T13:59:30;15.40;58.50
41924;DHT22;27613;48.116;11.656;2023-02-14T14:04:50;16.70;57.10
41924;DHT22;27613;48.116;11.656;2023-02-14T14:07:19;17.40;54.40
41924;DHT22;27613;48.116;11.656;2023-02-14T14:17:35;16.70;55.10
41924;DHT22;27613;48.116;11.656;2023-02-14T14:22:49;15.60;58.40
41924;DHT22;27613;48.116;11.656;2023-02-14T14:25:40;17.40;55.50
41924;DHT22;27613;48.116;11.656;2023-02-14T14:28:11;16.10;56.70
41924;DHT22;27613;48.116;11.656;2023-02-14T14:30:37;15.40;57.50
41924;DHT22;27613;48.116;11.656;2023-02-14T14:33:25;15.50;58.80
41924;DHT22;27613;48.116;11.656;2023-02-14T14:38:24;14.60;59.10
41924;DHT22;27613;48.116;11.656;2023-02-14T14:40:51;14.70;60.70
41924;DHT22;27613;48.116;11.656;2023-02-14T14:45:52;14.70;60.10
41924;DHT22;27613;48.116;11.656;2023-02-14T14:48:29;14.60;60.70
41924;DHT22;27613;48.116;11.656;2023-02-14T14:50:56;13.80;62.80
41924;DHT22;27613;48.116;11.656;2023-02-14T14:53:36;14.80;60.50
41924;DHT22;27613;48.116;11.656;2023-02-14T14:56:11;15.00;59.70
41924;DHT22;27613;48.116;11.656;2023-02-14T14:58:39;15.70;58.30
41924;DHT22;27613;48.116;11.656;2023-02-14T15:01:08;15.20;59.20
41924;DHT22;27613;48.116;11.656;2023-02-14T15:03:35;14.00;61.80
41924;DHT22;27613;48.116;11.656;2023-02-14T15:08:31;12.90;63.70
41924;DHT22;27613;48.116;11.656;2023-02-14T15:11:08;13.60;63.30
41924;DHT22;27613;48.116;11.656;2023-02-14T15:13:41;13.60;63.00
41924;DHT22;27613;48.116;11.656;2023-02-14T15:16:23;12.80;66.10
41924;DHT22;27613;48.116;11.656;2023-02-14T15:18:53;12.20;66.50
41924;DHT22;27613;48.116;11.656;2023-02-14T15:21:19;12.80;65.80
41924;DHT22;27613;48.116;11.656;2023-02-14T15:23:45;11.20;69.30
41924;DHT22;27613;48.116;11.656;2023-02-14T15:26:17;11.00;71.90
41924;DHT22;27613;48.116;11.656;2023-02-14T15:28:43;10.60;71.50
41924;DHT22;27613;48.116;11.656;2023-02-14T15:31:09;9.70;74.20
41924;DHT22;27613;48.116;11.656;2023-02-14T15:33:35;10.60;72.10
41924;DHT22;27613;48.116;11.656;2023-02-14T15:36:05;10.40;72.80
41924;DHT22;27613;48.116;11.656;2023-02-14T15:38:35;9.60;75.40
41924;DHT22;27613;48.116;11.656;2023-02-14T15:41:03;9.30;75.60
41924;DHT22;27613;48.116;11.656;2023-02-14T15:43:35;8.40;78.10
41924;DHT22;27613;48.116;11.656;2023-02-14T15:46:39;7.80;82.10
41924;DHT22;27613;48.116;11.656;2023-02-14T15:49:10;8.40;82.00
41924;DHT22;27613;48.116;11.656;2023-02-14T15:51:40;8.20;82.50
41924;DHT22;27613;48.116;11.656;2023-02-14T15:54:32;6.90;87.00
41924;DHT22;27613;48.116;11.656;2023-02-14T15:57:00;6.90;90.00
41924;DHT22;27613;48.116;11.656;2023-02-14T15:59:28;6.60;92.00
41924;DHT22;27613;48.116;11.656;2023-02-14T16:01:56;6.50;92.20
41924;DHT22;27613;48.116;11.656;2023-02-14T16:04:27;6.70;93.00
41924;DHT22;27613;48.116;11.656;2023-02-14T16:07:26;5.80;97.10
41924;DHT22;27613;48.116;11.656;2023-02-14T16:10:21;5.30;99.90
41924;DHT22;27613;48.116;11.656;2023-02-14T16:13:06;5.00;99.90
41924;DHT22;27613;48.116;11.656;2023-02-14T16:15:34;5.30;99.90
41924;DHT22;27613;48.116;11.656;2023-02-14T16:18:01;5.50;99.90
41924;DHT22;27613;48.116;11.656;2023-02-14T16:20:37;5.00;99.90
41924;DHT22;27613;48.116;11.656;2023-02-14T16:23:17;5.00;99.90
41924;DHT22;27613;48.116;11.656;2023-02-14T16:25:44;4.60;99.90
41924;DHT22;27613;48.116;11.656;2023-02-14T16:28:10;5.10;99.90
41924;DHT22;27613;48.116;11.656;2023-02-14T16:30:37;4.80;99.90
41924;DHT22;27613;48.116;11.656;2023-02-14T16:33:05;4.30;99.90
41924;DHT22;27613;48.116;11.656;2023-02-14T16:35:31;5.00;99.90
41924;DHT22;27613;48.116;11.656;2023-02-14T16:37:57;4.50;99.90
41924;DHT22;27613;48.116;11.656;2023-02-14T16:40:25;4.20;99.90
41924;DHT22;27613;48.116;11.656;2023-02-14T16:42:51;3.90;99.90
41924;DHT22;27613;48.116;11.656;2023-02-14T16:45:18;4.10;99.90
41924;DHT22;27613;48.116;11.656;2023-02-14T16:47:46;3.70;99.90
41924;DHT22;27613;48.116;11.656;2023-02-14T16:50:12;3.90;99.90
41924;DHT22;27613;48.116;11.656;2023-02-14T16:52:38;3.90;99.90
41924;DHT22;27613;48.116;11.656;2023-02-14T16:55:05;4.60;99.90
41924;DHT22;27613;48.116;11.656;2023-02-14T16:57:38;3.90;99.90
41924;DHT22;27613;48.116;11.656;2023-02-14T17:00:05;3.70;99.90
41924;DHT22;27613;48.116;11.656;2023-02-14T17:02:33;3.60;99.90
41924;DHT22;27613;48.116;11.656;2023-02-14T17:04:59;3.90;99.90
41924;DHT22;27613;48.116;11.656;2023-02-14T17:07:25;4.00;99.90
41924;DHT22;27613;48.116;11.656;2023-02-14T17:09:56;3.50;99.90
41924;DHT22;27613;48.116;11.656;2023-02-14T17:12:26;4.00;99.90
41924;DHT22;27613;48.116;11.656;2023-02-14T17:14:56;3.50;99.90
41924;DHT22;27613;48.116;11.656;2023-02-14T17:17:23;3.40;99.90
41924;DHT22;27613;48.116;11.656;2023-02-14T17:19:49;3.50;99.90
41924;DHT22;27613;48.116;11.656;2023-02-14T17:22:15;3.60;99.90
41924;DHT22;27613;48.116;11.656;2023-02-14T17:24:40;3.70;99.90
41924;DHT22;27613;48.116;11.656;2023-02-14T17:27:06;3.70;99.90
41924;DHT22;27613;48.116;11.656;2023-02-14T17:29:32;4.00;99.90
41924;DHT22;27613;48.116;11.656;2023-02-14T17:31:58;4.20;99.90
41924;DHT22;27613;48.116;11.656;2023-02-14T17:34:23;3.70;99.90
41924;DHT22;27613;48.116;11.656;2023-02-14T17:36:49;4.00;99.90
41924;DHT22;27613;48.116;11.656;2023-02-14T17:39:19;3.60;99.90
41924;DHT22;27613;48.116;11.656;2023-02-14T17:41:44;3.30;99.90
41924;DHT22;27613;48.116;11.656;2023-02-14T17:44:10;3.10;99.90
41924;DHT22;27613;48.116;11.656;2023-02-14T17:46:37;3.30;99.90
41924;DHT22;27613;48.116;11.656;2023-02-14T17:49:02;3.40;99.90
41924;DHT22;27613;48.116;11.656;2023-02-14T17:51:29;3.50;99.90
41924;DHT22;27613;48.116;11.656;2023-02-14T17:53:54;3.40;99.90